Flight Track Log - Related Links

Times and Time Zones

All times are in EDT time to prevent confusion due to time zone crossing. See the UAL4693 flight status page for this flight to view local times or setup timezone preferences in your user account.

Time Position Orientation Groundspeed Altitude Reporting Facility
EDT Latitude Longitude Course Direction KTS MPH feet Rate Location/Type
Tue 02:56:02 PM 37.4500 -77.3667 310° West 207 238 2,600  Level Potomac TRACON
Tue 02:56:50 PM 37.4603 -77.4364 281° West 246 283 3,900 2,167 Climbing Washington Center
Tue 02:57:50 PM 37.5094 -77.5003 314° West 252 290 6,500 2,380 Climbing Washington Center
Tue 02:58:00 PM 37.7173 -77.6759 310° West  Level FlightAware Approximate
Tue 02:58:51 PM 37.5583 -77.5644 314° West 252 290 8,700  Level Washington Center
Tue 02:59:00 PM 37.7772 -77.7620 307° West  Level FlightAware Approximate
Tue 02:59:51 PM 37.6117 -77.6314 315° West 262 302 9,200  Level Washington Center
Tue 03:00:00 PM 37.8323 -77.8538 307° West  Level FlightAware Approximate
Tue 03:00:49 PM 37.6647 -77.7011 314° West 267 307 11,200  Level Washington Center
Tue 03:01:00 PM 37.8815 -77.9471 310° West  Level FlightAware Approximate
Tue 03:01:50 PM 37.7236 -77.7761 315° West 279 321 12,500  Level Washington Center
Tue 03:02:51 PM 37.7850 -77.8542 315° West 295 339 14,200 1,488 Climbing Washington Center
Tue 03:03:51 PM 37.8339 -77.9161 315° West 308 354 15,500 1,475 Climbing Washington Center
Tue 03:04:49 PM 37.9089 -78.0131 314° West 308 354 17,100 1,563 Climbing Washington Center
Tue 03:05:50 PM 37.9697 -78.0967 313° West 313 360 18,600 1,574 Climbing Washington Center
Tue 03:06:51 PM 38.0458 -78.1572 328° Northwest 319 367 20,300 1,815 Climbing Washington Center
Tue 03:07:49 PM 38.1394 -78.1631 357° North 308 354 22,200 1,462 Climbing Washington Center
Tue 03:08:50 PM 38.2311 -78.1689 357° North 313 360 23,200 1,230 Climbing Washington Center
Tue 03:09:51 PM 38.3228 -78.1747 357° North 326 375 24,700 1,488 Climbing Washington Center
Tue 03:10:51 PM 38.4186 -78.1781 358° North 331 381 26,200 1,169 Climbing Washington Center
Tue 03:11:49 PM 38.5144 -78.1867 356° North 331 381 27,000 403 Climbing Washington Center
Tue 03:12:50 PM 38.6164 -78.1931 357° North 343 395 27,000  Level Washington Center
Tue 03:13:50 PM 38.7247 -78.1994 357° North 367 422 27,000  Level Washington Center
Tue 03:14:51 PM 38.8328 -78.2058 357° North 383 441 27,000  Level Washington Center
Tue 03:15:51 PM 38.9306 -78.2147 356° North 388 447 27,000  Level Washington Center
Tue 03:16:49 PM 39.0408 -78.2267 355° North 388 447 27,000  Level Washington Center
Tue 03:17:50 PM 39.1511 -78.2386 355° North 388 447 27,000  Level Washington Center
Tue 03:18:50 PM 39.2572 -78.2506 355° North 383 441 27,000  Level Washington Center
Tue 03:19:51 PM 39.3653 -78.2600 356° North 383 441 27,000  Level Washington Center
Tue 03:22:03 PM 39.6208 -78.2842 356° North 388 447 27,000  Level Cleveland Center
Tue 03:23:03 PM 39.7294 -78.2967 355° North 388 447 27,000  Level Cleveland Center
Tue 03:24:03 PM 39.8175 -78.3236 347° North 376 433 27,000  Level Cleveland Center
Tue 03:25:03 PM 39.9025 -78.4044 324° Northwest 366 421 27,000  Level Cleveland Center
Tue 03:26:03 PM 39.9833 -78.4886 321° Northwest 367 422 27,000  Level Cleveland Center
Tue 03:27:03 PM 40.0661 -78.5728 322° Northwest 372 428 27,000  Level Cleveland Center
Tue 03:28:03 PM 40.1469 -78.6600 320° Northwest 377 434 27,000 -100 Level Cleveland Center
Tue 03:29:03 PM 40.2275 -78.7447 321° Northwest 377 434 26,800 -500 Descending Cleveland Center
Tue 03:30:03 PM 40.3103 -78.8350 320° Northwest 382 440 26,000 -400 Descending Cleveland Center
Tue 03:31:03 PM 40.3764 -78.9425 309° West 382 440 26,000  Level Cleveland Center
Tue 03:32:03 PM 40.4406 -79.0553 307° West 382 440 26,000  Level Cleveland Center
Tue 03:33:03 PM 40.5025 -79.1686 306° West 382 440 26,000  Level Cleveland Center
Tue 03:34:03 PM 40.5664 -79.2822 307° West 382 440 26,000  Level Cleveland Center
Tue 03:35:03 PM 40.6322 -79.3931 308° West 382 440 26,000 -300 Level Cleveland Center
Tue 03:36:03 PM 40.6958 -79.5125 305° West 387 445 25,400 -900 Descending Cleveland Center
Tue 03:37:03 PM 40.7614 -79.6264 307° West 387 445 24,200 -700 Descending Cleveland Center
Tue 03:38:03 PM 40.8250 -79.7436 306° West 387 445 24,000 -100 Descending Cleveland Center
Tue 03:39:03 PM 40.8903 -79.8608 306° West 392 451 24,000  Level Cleveland Center
Tue 03:40:03 PM 40.9558 -79.9783 306° West 392 451 24,000  Level Cleveland Center
Tue 03:41:03 PM 41.0272 -80.1097 306° West 398 458 24,000  Level Cleveland Center
Tue 03:42:03 PM 41.0903 -80.2250 306° West 398 458 24,000  Level Cleveland Center
Tue 03:43:03 PM 41.1531 -80.3431 305° West 398 458 24,000 -300 Level Cleveland Center
Tue 03:44:03 PM 41.2117 -80.4533 305° West 398 458 23,400 -1,550 Descending Cleveland Center
Tue 03:45:03 PM 41.2742 -80.5692 306° West 398 458 20,900 -2,479 Descending Cleveland Center
Tue 03:46:04 PM 41.3344 -80.6883 304° West 398 458 18,400 -2,450 Descending Cleveland Center
Tue 03:47:03 PM 41.3803 -80.8044 298° West 375 432 16,000 -2,370 Descending Cleveland Center
Tue 03:48:03 PM 41.4236 -80.9208 296° West 361 415 13,700 -2,150 Descending Cleveland Center
Tue 03:49:03 PM 41.4650 -81.0264 298° West 336 387 11,700 -1,800 Descending Cleveland Center
Tue 03:50:03 PM 41.5000 -81.1267 295° West 307 353 10,100 -850 Descending Cleveland Center
Tue 03:51:03 PM 41.5119 -81.2236 279° West 275 316 10,000 -231 Descending Cleveland Center
Tue 03:52:13 PM 41.5072 -81.3483 267° West 265 305 9,600 -893 Descending Cleveland Center
Tue 03:53:04 PM 41.5025 -81.4289 266° West 270 311 8,200 -1,909 Descending Cleveland Center
Tue 03:54:03 PM 41.4975 -81.5256 266° West 264 304 6,100 -1,966 Descending Cleveland Center
Tue 03:55:03 PM 41.4925 -81.6200 266° West 264 304 4,300 -1,289 Descending Cleveland Center
Tue 03:56:04 PM 41.4875 -81.7058 266° West 251 289 3,500 -938 Descending Cleveland Center
Tue 03:57:11 PM 41.4639 -81.7719 245° Southwest 159 183 2,300 -896 Descending Cleveland Center
Tue 03:58:18 PM 41.4342 -81.8156 228° Southwest 137 158 1,500 -716 Descending Cleveland Center

Login

Don't have an account? Register now (free) for customized features, flight alerts, and more!